createdAt,value
2018-08-24T00:00:02.634Z,1006.97
2018-08-24T00:01:02.566Z,1006.96
2018-08-24T00:02:02.507Z,1006.93
2018-08-24T00:03:02.456Z,1006.97
2018-08-24T00:04:02.342Z,1006.92
2018-08-24T00:05:02.307Z,1006.95
2018-08-24T00:06:02.174Z,1006.94
2018-08-24T00:07:02.104Z,1007.01
2018-08-24T00:08:02.088Z,1007.02
2018-08-24T00:09:01.966Z,1006.99
2018-08-24T00:10:01.854Z,1006.95
2018-08-24T00:11:01.935Z,1006.94
2018-08-24T00:12:01.694Z,1007.00
2018-08-24T00:13:01.654Z,1006.98
2018-08-24T00:14:01.540Z,1007.01
2018-08-24T00:15:01.477Z,1006.98
2018-08-24T00:16:01.388Z,1007.04
2018-08-24T00:17:01.317Z,1007.00
2018-08-24T00:18:01.264Z,1007.03
2018-08-24T00:19:01.160Z,1006.95
2018-08-24T00:20:01.066Z,1007.09
2018-08-24T00:21:01.089Z,1006.90
2018-08-24T00:22:00.914Z,1006.99
2018-08-24T00:23:00.911Z,1006.96
2018-08-24T00:24:00.868Z,1006.91
2018-08-24T00:25:00.675Z,1006.88
2018-08-24T00:26:00.619Z,1006.89
2018-08-24T00:27:00.574Z,1006.86
2018-08-24T00:28:00.438Z,1006.86
2018-08-24T00:29:01.383Z,1006.84
2018-08-24T00:30:00.285Z,1006.84
2018-08-24T00:32:42.297Z,1006.82
2018-08-24T00:33:42.269Z,1006.80
2018-08-24T00:34:42.139Z,1006.81
2018-08-24T00:35:42.066Z,1006.82
2018-08-24T00:36:42.001Z,1006.79
2018-08-24T00:37:41.922Z,1006.78
2018-08-24T00:38:41.850Z,1006.76
2018-08-24T00:39:41.753Z,1006.78
2018-08-24T00:40:41.674Z,1006.81
2018-08-24T00:41:41.594Z,1006.81
2018-08-24T00:42:41.576Z,1006.80
2018-08-24T00:43:41.471Z,1006.77
2018-08-24T00:44:41.351Z,1006.70
2018-08-24T00:45:41.285Z,1006.70
2018-08-24T00:46:41.200Z,1006.64
2018-08-24T00:49:23.649Z,1006.63
2018-08-24T00:50:23.282Z,1006.61
2018-08-24T00:51:23.167Z,1006.62
2018-08-24T00:52:23.073Z,1006.58
2018-08-24T00:53:22.995Z,1006.62
2018-08-24T00:54:22.939Z,1006.66
2018-08-24T00:55:22.825Z,1006.67
2018-08-24T00:56:22.759Z,1006.62
2018-08-24T00:57:22.675Z,1006.59
2018-08-24T00:58:22.608Z,1006.62
2018-08-24T00:59:22.550Z,1006.59
2018-08-24T01:00:22.447Z,1006.64
2018-08-24T01:01:22.356Z,1006.63
2018-08-24T01:04:04.312Z,1006.68
2018-08-24T01:05:25.357Z,1006.70
2018-08-24T01:06:04.154Z,1006.71
2018-08-24T01:07:04.090Z,1006.70
2018-08-24T01:08:03.989Z,1006.67
2018-08-24T01:09:04.937Z,1006.59
2018-08-24T01:10:03.865Z,1006.60
2018-08-24T01:11:03.763Z,1006.60
2018-08-24T01:12:03.690Z,1006.61
2018-08-24T01:13:03.650Z,1006.57
2018-08-24T01:14:03.520Z,1006.57
2018-08-24T01:15:04.456Z,1006.59
2018-08-24T01:16:03.379Z,1006.63
2018-08-24T01:17:03.292Z,1006.54
2018-08-24T01:18:03.226Z,1006.52
2018-08-24T01:19:03.133Z,1006.57
2018-08-24T01:20:03.066Z,1006.61
2018-08-24T01:21:02.974Z,1006.63
2018-08-24T01:22:02.889Z,1006.67
2018-08-24T01:24:44.815Z,1006.63
2018-08-24T01:25:44.777Z,1006.62
2018-08-24T01:26:44.783Z,1006.62
2018-08-24T01:27:44.593Z,1006.59
2018-08-24T01:28:44.504Z,1006.58
2018-08-24T01:29:44.615Z,1006.56
2018-08-24T01:30:44.357Z,1006.54
2018-08-24T01:31:44.314Z,1006.56
2018-08-24T01:32:44.184Z,1006.56
2018-08-24T01:33:44.115Z,1006.56
2018-08-24T01:34:44.036Z,1006.56
2018-08-24T01:35:43.972Z,1006.56
2018-08-24T01:36:43.874Z,1006.53
2018-08-24T01:39:25.829Z,1006.51
2018-08-24T01:40:25.747Z,1006.50
2018-08-24T01:41:25.677Z,1006.52
2018-08-24T01:42:25.598Z,1006.51
2018-08-24T01:43:25.505Z,1006.53
2018-08-24T01:44:25.443Z,1006.45
2018-08-24T01:45:25.345Z,1006.51
2018-08-24T01:46:25.296Z,1006.47
2018-08-24T01:47:25.194Z,1006.49
2018-08-24T01:48:25.128Z,1006.51
2018-08-24T01:49:25.024Z,1006.49
2018-08-24T01:50:24.979Z,1006.46
2018-08-24T01:51:24.900Z,1006.43
2018-08-24T01:52:24.827Z,1006.48
2018-08-24T01:53:24.725Z,1006.46
2018-08-24T01:54:24.664Z,1006.47
2018-08-24T01:55:24.565Z,1006.49
2018-08-24T01:56:24.504Z,1006.50
2018-08-24T01:57:24.422Z,1006.52
2018-08-24T01:58:24.330Z,1006.52
2018-08-24T01:59:24.253Z,1006.52
2018-08-24T02:00:24.169Z,1006.53
2018-08-24T02:01:24.084Z,1006.53
2018-08-24T02:02:24.034Z,1006.49
2018-08-24T02:03:23.928Z,1006.54
2018-08-24T02:04:23.856Z,1006.52
2018-08-24T02:05:23.776Z,1006.51
2018-08-24T02:06:23.704Z,1006.55
2018-08-24T02:08:23.541Z,1006.55
2018-08-24T02:09:23.565Z,1006.52
2018-08-24T02:10:23.385Z,1006.51
2018-08-24T02:11:23.297Z,1006.58
2018-08-24T02:12:23.284Z,1006.55
2018-08-24T02:13:23.145Z,1006.58
2018-08-24T02:14:23.119Z,1006.60
2018-08-24T02:15:22.988Z,1006.57
2018-08-24T02:18:04.864Z,1006.55
2018-08-24T02:19:04.763Z,1006.57
2018-08-24T02:20:04.686Z,1006.53
2018-08-24T02:21:04.600Z,1006.54
2018-08-24T02:22:04.512Z,1006.58
2018-08-24T02:23:05.540Z,1006.60
2018-08-24T02:24:04.356Z,1006.57
2018-08-24T02:25:04.285Z,1006.61
2018-08-24T02:26:04.202Z,1006.62
2018-08-24T02:27:04.171Z,1006.56
2018-08-24T02:30:11.872Z,1006.53
2018-08-24T02:31:11.806Z,1006.51
2018-08-24T02:32:11.680Z,1006.49
2018-08-24T02:36:07.867Z,1006.53
2018-08-24T02:37:07.758Z,1006.49
2018-08-24T02:38:07.709Z,1006.48
2018-08-24T02:39:07.637Z,1006.47
2018-08-24T02:40:07.527Z,1006.50
2018-08-24T02:41:07.444Z,1006.49
2018-08-24T02:43:49.379Z,1006.49
2018-08-24T02:44:49.273Z,1006.46
2018-08-24T02:48:31.502Z,1006.36
2018-08-24T02:49:31.290Z,1006.44
2018-08-24T02:50:31.179Z,1006.36
2018-08-24T02:51:31.246Z,1006.39
2018-08-24T02:52:31.028Z,1006.42
2018-08-24T02:53:30.950Z,1006.38
2018-08-24T02:54:30.890Z,1006.44
2018-08-24T02:55:30.795Z,1006.41
2018-08-24T02:56:30.714Z,1006.41
2018-08-24T02:57:30.637Z,1006.40
2018-08-24T02:58:30.547Z,1006.39
2018-08-24T02:59:30.472Z,1006.42
2018-08-24T03:00:30.421Z,1006.42
2018-08-24T03:01:30.349Z,1006.40
2018-08-24T03:02:30.246Z,1006.41
2018-08-24T03:03:30.169Z,1006.40
2018-08-24T03:04:30.079Z,1006.42
2018-08-24T03:05:30.179Z,1006.43
2018-08-24T03:06:29.924Z,1006.43
2018-08-24T03:07:30.005Z,1006.47
2018-08-24T03:08:29.765Z,1006.43
2018-08-24T03:09:29.689Z,1006.44
2018-08-24T03:10:29.625Z,1006.45
2018-08-24T03:11:29.526Z,1006.45
2018-08-24T03:12:29.448Z,1006.48
2018-08-24T03:13:29.366Z,1006.45
2018-08-24T03:14:29.289Z,1006.41
2018-08-24T03:15:29.244Z,1006.44
2018-08-24T03:16:29.171Z,1006.44
2018-08-24T03:17:29.056Z,1006.44
2018-08-24T03:18:28.980Z,1006.48
2018-08-24T03:19:28.898Z,1006.49
2018-08-24T03:20:28.852Z,1006.47
2018-08-24T03:21:28.758Z,1006.44
2018-08-24T03:22:28.651Z,1006.50
2018-08-24T03:23:28.580Z,1006.53
2018-08-24T03:24:28.514Z,1006.50
2018-08-24T03:25:28.445Z,1006.49
2018-08-24T03:26:28.357Z,1006.53
2018-08-24T03:27:28.327Z,1006.56
2018-08-24T03:28:28.178Z,1006.53
2018-08-24T03:29:28.119Z,1006.51
2018-08-24T03:30:28.018Z,1006.52
2018-08-24T03:31:27.960Z,1006.51
2018-08-24T03:32:27.862Z,1006.54
2018-08-24T03:33:27.795Z,1006.47
2018-08-24T03:34:27.715Z,1006.50
2018-08-24T03:35:27.636Z,1006.51
2018-08-24T03:36:27.591Z,1006.56
2018-08-24T03:37:27.470Z,1006.43
2018-08-24T03:38:27.390Z,1006.53
2018-08-24T03:41:09.378Z,1006.61
2018-08-24T03:42:09.315Z,1006.56
2018-08-24T03:43:09.201Z,1006.63
2018-08-24T03:44:09.128Z,1006.62
2018-08-24T03:45:09.042Z,1006.60
2018-08-24T03:47:50.877Z,1006.66
2018-08-24T03:48:50.794Z,1006.64
2018-08-24T03:49:50.706Z,1006.63
2018-08-24T03:50:50.626Z,1006.64
2018-08-24T03:51:50.621Z,1006.68
2018-08-24T03:52:51.528Z,1006.61
2018-08-24T03:53:50.382Z,1006.66
2018-08-24T03:54:50.386Z,1006.68
2018-08-24T03:55:50.222Z,1006.66
2018-08-24T03:56:50.148Z,1006.72
2018-08-24T03:57:50.221Z,1006.68
2018-08-24T03:58:49.999Z,1006.70
2018-08-24T03:59:49.935Z,1006.70
2018-08-24T04:02:31.887Z,1006.73
2018-08-24T04:03:31.798Z,1006.74
2018-08-24T04:04:31.719Z,1006.74
2018-08-24T04:05:31.633Z,1006.77
2018-08-24T04:06:31.548Z,1006.77
2018-08-24T04:07:31.509Z,1006.77
2018-08-24T04:08:31.412Z,1006.78
2018-08-24T04:09:31.313Z,1006.71
2018-08-24T04:10:31.237Z,1006.79
2018-08-24T04:11:31.151Z,1006.80
2018-08-24T04:12:31.066Z,1006.76
2018-08-24T04:13:31.017Z,1006.75
2018-08-24T04:14:30.930Z,1006.75
2018-08-24T04:15:30.844Z,1006.76
2018-08-24T04:16:30.754Z,1006.76
2018-08-24T04:17:30.677Z,1006.77
2018-08-24T04:18:30.653Z,1006.76
2018-08-24T04:19:30.627Z,1006.74
2018-08-24T04:20:30.432Z,1006.80
2018-08-24T04:21:30.446Z,1006.79
2018-08-24T04:22:30.282Z,1006.79
2018-08-24T04:26:19.873Z,1006.76
2018-08-24T04:27:19.809Z,1006.77
2018-08-24T04:28:21.818Z,1006.80
2018-08-24T04:29:19.648Z,1006.79
2018-08-24T04:31:19.491Z,1006.77
2018-08-24T04:32:19.491Z,1006.80
2018-08-24T04:33:19.313Z,1006.87
2018-08-24T04:34:19.338Z,1006.82
2018-08-24T04:35:19.156Z,1006.85
2018-08-24T04:36:19.111Z,1006.86
2018-08-24T04:37:18.991Z,1006.83
2018-08-24T04:38:18.925Z,1006.85
2018-08-24T04:39:18.855Z,1006.87
2018-08-24T04:40:18.944Z,1006.89
2018-08-24T04:41:18.687Z,1006.93
2018-08-24T04:42:18.646Z,1006.85
2018-08-24T04:43:18.521Z,1006.88
2018-08-24T04:44:18.482Z,1006.93
2018-08-24T04:45:18.485Z,1006.92
2018-08-24T04:46:18.297Z,1006.94
2018-08-24T04:47:18.220Z,1006.90
2018-08-24T04:48:18.291Z,1006.90
2018-08-24T04:49:18.044Z,1006.91
2018-08-24T04:50:18.115Z,1006.90
2018-08-24T04:51:17.965Z,1006.93
2018-08-24T04:52:17.880Z,1006.93
2018-08-24T04:53:17.733Z,1006.94
2018-08-24T04:55:59.894Z,1006.91
2018-08-24T04:56:59.806Z,1006.85
2018-08-24T04:57:59.753Z,1006.84
2018-08-24T04:58:59.653Z,1006.82
2018-08-24T04:59:59.599Z,1006.85
2018-08-24T05:02:41.392Z,1006.83
2018-08-24T05:03:41.304Z,1006.84
2018-08-24T05:04:41.225Z,1006.82
2018-08-24T05:05:41.202Z,1006.86
2018-08-24T05:06:41.077Z,1006.81
2018-08-24T05:07:40.987Z,1006.88
2018-08-24T05:08:40.904Z,1006.87
2018-08-24T05:09:40.941Z,1006.87
2018-08-24T05:10:40.749Z,1006.90
2018-08-24T05:11:40.795Z,1006.92
2018-08-24T05:12:40.594Z,1006.92
2018-08-24T05:13:40.523Z,1006.92
2018-08-24T05:14:40.425Z,1006.97
2018-08-24T05:15:40.482Z,1006.98
2018-08-24T05:16:40.297Z,1006.99
2018-08-24T05:17:40.276Z,1006.98
2018-08-24T05:18:40.140Z,1007.01
2018-08-24T05:19:40.081Z,1006.95
2018-08-24T05:20:39.949Z,1007.02
2018-08-24T05:21:40.040Z,1007.05
2018-08-24T05:22:39.834Z,1007.02
2018-08-24T05:23:39.803Z,1007.01
2018-08-24T05:24:39.803Z,1006.98
2018-08-24T05:25:39.613Z,1007.03
2018-08-24T05:26:39.478Z,1007.01
2018-08-24T05:27:39.514Z,1007.03
2018-08-24T05:28:39.325Z,1007.03
2018-08-24T05:29:39.324Z,1007.03
2018-08-24T05:30:39.164Z,1007.05
2018-08-24T05:31:39.158Z,1007.09
2018-08-24T05:32:39.029Z,1007.06
2018-08-24T05:33:39.069Z,1007.08
2018-08-24T05:34:38.840Z,1007.03
2018-08-24T05:35:38.902Z,1007.06
2018-08-24T05:36:38.689Z,1007.09
2018-08-24T05:37:38.713Z,1007.07
2018-08-24T05:38:38.545Z,1007.12
2018-08-24T05:39:38.584Z,1007.08
2018-08-24T05:40:38.384Z,1007.16
2018-08-24T05:41:46.343Z,1007.14
2018-08-24T05:42:38.252Z,1007.15
2018-08-24T05:45:20.396Z,1007.20
2018-08-24T05:46:20.319Z,1007.21
2018-08-24T05:47:20.235Z,1007.22
2018-08-24T05:48:20.176Z,1007.24
2018-08-24T05:49:20.075Z,1007.26
2018-08-24T05:50:20.007Z,1007.25
2018-08-24T05:51:19.912Z,1007.23
2018-08-24T05:52:19.845Z,1007.27
2018-08-24T05:53:19.779Z,1007.23
2018-08-24T05:54:19.690Z,1007.24
2018-08-24T05:55:19.600Z,1007.27
2018-08-24T05:56:19.540Z,1007.27
2018-08-24T05:57:19.480Z,1007.28
2018-08-24T05:58:19.389Z,1007.24
2018-08-24T05:59:19.283Z,1007.21
2018-08-24T06:00:19.334Z,1007.26
2018-08-24T06:01:19.127Z,1007.27
2018-08-24T06:02:19.050Z,1007.28
2018-08-24T06:03:19.133Z,1007.25
2018-08-24T06:04:18.894Z,1007.26
2018-08-24T06:05:18.804Z,1007.26
2018-08-24T06:06:18.735Z,1007.30
2018-08-24T06:07:18.655Z,1007.28
2018-08-24T06:08:18.601Z,1007.27
2018-08-24T06:09:18.541Z,1007.25
2018-08-24T06:10:18.456Z,1007.27
2018-08-24T06:11:18.345Z,1007.25
2018-08-24T06:12:18.264Z,1007.30
2018-08-24T06:13:18.293Z,1007.25
2018-08-24T06:14:18.123Z,1007.26
2018-08-24T06:15:18.020Z,1007.22
2018-08-24T06:16:18.092Z,1007.21
2018-08-24T06:17:17.855Z,1007.32
2018-08-24T06:18:17.811Z,1007.30
2018-08-24T06:19:17.713Z,1007.32
2018-08-24T06:20:17.636Z,1007.25
2018-08-24T06:21:17.543Z,1007.27
2018-08-24T06:22:17.486Z,1007.31
2018-08-24T06:23:17.389Z,1007.30
2018-08-24T06:24:18.358Z,1007.31
2018-08-24T06:25:17.232Z,1007.39
2018-08-24T06:26:17.154Z,1007.38
2018-08-24T06:27:17.074Z,1007.36
2018-08-24T06:28:17.002Z,1007.37
2018-08-24T06:29:16.932Z,1007.42
2018-08-24T06:30:16.841Z,1007.40
2018-08-24T06:31:16.760Z,1007.39
2018-08-24T06:32:16.671Z,1007.37
2018-08-24T06:33:16.602Z,1007.41
2018-08-24T06:34:17.562Z,1007.37
2018-08-24T06:35:16.459Z,1007.40
2018-08-24T06:36:16.374Z,1007.43
2018-08-24T06:37:16.273Z,1007.45
2018-08-24T06:38:16.202Z,1007.48
2018-08-24T06:39:16.267Z,1007.48
2018-08-24T06:40:16.071Z,1007.45
2018-08-24T06:41:15.966Z,1007.45
2018-08-24T06:42:15.897Z,1007.44
2018-08-24T06:43:15.798Z,1007.49
2018-08-24T06:44:15.740Z,1007.51
2018-08-24T06:45:15.664Z,1007.53
2018-08-24T06:46:15.592Z,1007.60
2018-08-24T06:47:15.540Z,1007.58
2018-08-24T06:48:15.410Z,1007.54
2018-08-24T06:49:15.353Z,1007.59
2018-08-24T06:50:15.270Z,1007.59
2018-08-24T06:51:15.165Z,1007.54
2018-08-24T06:52:15.108Z,1007.59
2018-08-24T06:53:15.136Z,1007.64
2018-08-24T06:54:14.937Z,1007.59
2018-08-24T06:55:14.921Z,1007.63
2018-08-24T06:56:14.793Z,1007.63
2018-08-24T06:57:14.691Z,1007.64
2018-08-24T06:58:14.643Z,1007.66
2018-08-24T06:59:14.549Z,1007.59
2018-08-24T07:00:14.502Z,1007.63
2018-08-24T07:01:14.385Z,1007.64
2018-08-24T07:02:14.315Z,1007.67
2018-08-24T07:03:14.227Z,1007.64
2018-08-24T07:04:14.157Z,1007.67
2018-08-24T07:05:14.110Z,1007.63
2018-08-24T07:06:13.986Z,1007.68
2018-08-24T07:07:13.910Z,1007.70
2018-08-24T07:08:13.826Z,1007.65
2018-08-24T07:09:13.765Z,1007.70
2018-08-24T07:11:55.933Z,1007.77
2018-08-24T07:12:55.898Z,1007.75
2018-08-24T07:13:55.767Z,1007.77
2018-08-24T07:16:37.941Z,1007.85
2018-08-24T07:17:37.850Z,1007.80
2018-08-24T07:18:37.762Z,1007.81
2018-08-24T07:19:37.691Z,1007.80
2018-08-24T07:20:37.611Z,1007.85
2018-08-24T07:21:37.577Z,1007.80
2018-08-24T07:22:37.472Z,1007.87
2018-08-24T07:23:37.373Z,1007.84
2018-08-24T07:24:37.402Z,1007.88
2018-08-24T07:25:37.241Z,1007.84
2018-08-24T07:26:37.166Z,1007.92
2018-08-24T07:29:19.432Z,1007.88
2018-08-24T07:32:01.466Z,1007.86
2018-08-24T07:34:43.494Z,1007.84
2018-08-24T07:35:43.394Z,1007.88
2018-08-24T07:36:43.315Z,1007.87
2018-08-24T07:37:43.357Z,1007.89
2018-08-24T07:38:43.152Z,1007.92
2018-08-24T07:39:43.076Z,1007.91
2018-08-24T07:40:42.953Z,1007.97
2018-08-24T07:41:42.976Z,1007.91
2018-08-24T07:42:42.820Z,1007.98
2018-08-24T07:43:42.735Z,1008.00
2018-08-24T07:44:42.647Z,1008.01
2018-08-24T07:45:42.714Z,1007.94
2018-08-24T07:46:42.497Z,1007.98
2018-08-24T07:47:42.463Z,1007.96
2018-08-24T07:48:42.322Z,1008.05
2018-08-24T07:51:24.429Z,1008.02
2018-08-24T07:52:24.374Z,1008.03
2018-08-24T07:53:24.308Z,1008.07
2018-08-24T07:56:06.445Z,1008.01
2018-08-24T07:58:48.453Z,1008.07
2018-08-24T07:59:48.359Z,1008.08
2018-08-24T08:00:48.277Z,1008.12
2018-08-24T08:01:48.218Z,1008.11
2018-08-24T08:02:48.145Z,1008.01
2018-08-24T08:03:48.082Z,1008.07
2018-08-24T08:04:47.960Z,1007.92
2018-08-24T08:05:47.895Z,1008.12
2018-08-24T08:06:47.872Z,1008.10
2018-08-24T08:07:47.735Z,1008.05
2018-08-24T08:08:47.677Z,1008.02
2018-08-24T08:09:47.618Z,1008.09
2018-08-24T08:10:47.488Z,1008.07
2018-08-24T08:13:29.644Z,1008.08
2018-08-24T08:14:29.372Z,1008.15
2018-08-24T08:15:29.277Z,1008.14
2018-08-24T08:16:29.212Z,1008.14
2018-08-24T08:17:29.128Z,1008.14
2018-08-24T08:18:30.101Z,1008.17
2018-08-24T08:19:28.952Z,1008.22
2018-08-24T08:20:28.913Z,1008.23
2018-08-24T08:21:28.857Z,1008.26
2018-08-24T08:24:11.007Z,1008.29
2018-08-24T08:25:10.881Z,1008.29
2018-08-24T08:26:10.794Z,1008.36
2018-08-24T08:28:52.970Z,1008.44
2018-08-24T08:29:52.922Z,1008.44
2018-08-24T08:30:52.780Z,1008.48
2018-08-24T08:31:52.711Z,1008.50
2018-08-24T08:32:52.630Z,1008.45
2018-08-24T08:33:52.576Z,1008.49
2018-08-24T08:34:52.466Z,1008.51
2018-08-24T08:35:52.398Z,1008.53
2018-08-24T08:36:52.322Z,1008.51
2018-08-24T08:37:52.254Z,1008.58
2018-08-24T08:38:52.209Z,1008.63
2018-08-24T08:39:52.140Z,1008.73
2018-08-24T08:40:52.008Z,1008.67
2018-08-24T08:43:34.016Z,1008.73
2018-08-24T08:44:33.899Z,1008.81
2018-08-24T08:45:33.791Z,1008.88
2018-08-24T08:46:33.730Z,1008.78
2018-08-24T08:47:33.626Z,1008.79
2018-08-24T08:48:33.551Z,1008.84
2018-08-24T08:49:33.556Z,1008.83
2018-08-24T08:50:33.402Z,1008.88
2018-08-24T08:51:33.314Z,1009.14
2018-08-24T08:52:33.245Z,1009.07
2018-08-24T08:53:33.199Z,1008.93
2018-08-24T08:54:33.111Z,1009.09
2018-08-24T08:55:33.011Z,1009.08
2018-08-24T08:56:32.932Z,1009.08
2018-08-24T08:57:32.850Z,1009.19
2018-08-24T08:58:32.776Z,1009.37
2018-08-24T08:59:32.716Z,1009.05
2018-08-24T09:00:32.613Z,1009.39
2018-08-24T09:01:32.523Z,1008.98
2018-08-24T09:02:32.457Z,1009.03
2018-08-24T09:03:32.364Z,1009.04
2018-08-24T09:06:14.525Z,1009.01
2018-08-24T09:07:14.394Z,1009.00
2018-08-24T09:08:14.291Z,1009.03
2018-08-24T09:09:14.235Z,1009.05
2018-08-24T09:10:14.163Z,1009.06
2018-08-24T09:11:15.091Z,1009.09
2018-08-24T09:12:14.002Z,1009.16
2018-08-24T09:14:55.963Z,1009.26
2018-08-24T09:15:55.903Z,1009.12
2018-08-24T09:16:55.883Z,1009.22
2018-08-24T09:17:55.735Z,1009.11
2018-08-24T09:18:55.655Z,1009.14
2018-08-24T09:21:37.984Z,1009.11
2018-08-24T09:22:37.887Z,1009.28
2018-08-24T09:23:37.801Z,1009.09
2018-08-24T09:24:37.758Z,1009.13
2018-08-24T09:25:37.712Z,1009.10
2018-08-24T09:26:37.624Z,1009.09
2018-08-24T09:27:37.493Z,1009.12
2018-08-24T09:28:37.444Z,1009.09
2018-08-24T09:29:37.342Z,1009.08
2018-08-24T09:30:37.278Z,1009.21
2018-08-24T09:31:37.210Z,1009.26
2018-08-24T09:32:37.257Z,1009.71
2018-08-24T09:33:37.044Z,1009.20
2018-08-24T09:36:18.997Z,1009.56
2018-08-24T09:37:18.897Z,1009.49
2018-08-24T09:38:18.810Z,1009.78
2018-08-24T09:39:18.820Z,1009.39
2018-08-24T09:40:18.660Z,1009.69
2018-08-24T09:41:18.604Z,1009.92
2018-08-24T09:42:18.553Z,1009.90
2018-08-24T09:43:18.432Z,1009.80
2018-08-24T09:44:18.347Z,1009.35
2018-08-24T09:47:00.517Z,1010.13
2018-08-24T09:48:00.401Z,1009.33
2018-08-24T09:49:00.365Z,1010.07
2018-08-24T09:50:00.257Z,1009.37
2018-08-24T09:51:00.164Z,1009.46
2018-08-24T09:52:00.250Z,1009.39
2018-08-24T09:53:00.028Z,1010.13
2018-08-24T09:53:59.952Z,1010.08
2018-08-24T09:54:59.958Z,1009.65
2018-08-24T09:55:59.797Z,1009.37
2018-08-24T09:56:59.845Z,1009.65
2018-08-24T09:57:59.714Z,1009.22
2018-08-24T09:58:59.566Z,1009.34
2018-08-24T10:01:41.496Z,1009.28
2018-08-24T10:02:41.505Z,1009.19
2018-08-24T10:03:41.344Z,1009.23
2018-08-24T10:04:41.274Z,1009.18
2018-08-24T10:05:41.194Z,1009.57
2018-08-24T10:06:41.160Z,1009.34
2018-08-24T10:07:41.047Z,1009.27
2018-08-24T10:08:40.961Z,1009.29
2018-08-24T10:09:40.877Z,1009.38
2018-08-24T10:12:23.010Z,1009.26
2018-08-24T10:13:22.975Z,1009.20
2018-08-24T10:14:22.820Z,1009.20
2018-08-24T10:15:22.838Z,1009.24
2018-08-24T10:16:22.681Z,1009.17
2018-08-24T10:17:22.608Z,1009.24
2018-08-24T10:18:22.672Z,1009.16
2018-08-24T10:19:22.459Z,1009.12
2018-08-24T10:20:22.387Z,1009.18
2018-08-24T10:23:04.550Z,1009.32
2018-08-24T10:24:04.414Z,1009.27
2018-08-24T10:25:04.382Z,1009.41
2018-08-24T10:26:04.258Z,1009.17
2018-08-24T10:27:04.182Z,1009.19
2018-08-24T10:28:04.247Z,1009.19
2018-08-24T10:29:04.068Z,1009.22
2018-08-24T10:30:03.961Z,1009.64
2018-08-24T10:31:04.002Z,1009.31
2018-08-24T10:32:03.816Z,1009.77
2018-08-24T10:33:03.734Z,1009.93
2018-08-24T10:34:03.675Z,1009.46
2018-08-24T10:35:03.561Z,1009.36
2018-08-24T10:36:03.491Z,1009.91
2018-08-24T10:37:03.416Z,1009.32
2018-08-24T10:38:03.380Z,1009.28
2018-08-24T10:39:03.304Z,1009.19
2018-08-24T10:40:03.265Z,1009.29
2018-08-24T10:41:03.192Z,1009.50
2018-08-24T10:42:03.063Z,1009.58
2018-08-24T10:43:02.967Z,1009.79
2018-08-24T10:44:03.113Z,1009.65
2018-08-24T10:45:02.830Z,1009.39
2018-08-24T10:46:02.740Z,1009.67
2018-08-24T10:47:02.700Z,1009.69
2018-08-24T10:48:02.597Z,1009.48
2018-08-24T10:49:02.529Z,1009.63
2018-08-24T10:50:03.473Z,1009.87
2018-08-24T10:51:02.368Z,1009.84
2018-08-24T10:52:02.309Z,1009.74
2018-08-24T10:53:02.226Z,1009.75
2018-08-24T10:54:03.187Z,1009.74
2018-08-24T10:55:02.240Z,1009.82
2018-08-24T10:56:02.115Z,1009.78
2018-08-24T10:57:01.923Z,1009.76
2018-08-24T10:58:01.873Z,1009.67
2018-08-24T10:59:01.785Z,1009.22
2018-08-24T11:00:01.773Z,1009.16
2018-08-24T11:01:01.646Z,1009.88
2018-08-24T11:02:01.631Z,1009.80
2018-08-24T11:03:01.503Z,1009.70
2018-08-24T11:04:01.459Z,1009.70
2018-08-24T11:05:01.402Z,1009.76
2018-08-24T11:07:43.534Z,1009.74
2018-08-24T11:08:43.490Z,1009.71
2018-08-24T11:09:43.385Z,1009.29
2018-08-24T11:10:43.348Z,1009.31
2018-08-24T11:11:43.230Z,1009.32
2018-08-24T11:12:43.170Z,1009.91
2018-08-24T11:13:43.102Z,1009.88
2018-08-24T11:14:43.017Z,1009.88
2018-08-24T11:15:42.977Z,1009.86
2018-08-24T11:18:25.004Z,1009.90
2018-08-24T11:21:07.026Z,1009.89
2018-08-24T11:22:06.955Z,1010.00
2018-08-24T11:23:06.897Z,1010.08
2018-08-24T11:24:06.804Z,1009.48
2018-08-24T11:25:06.730Z,1010.00
2018-08-24T11:26:06.693Z,1009.36
2018-08-24T11:27:06.606Z,1009.72
2018-08-24T11:28:06.539Z,1009.77
2018-08-24T11:29:06.518Z,1009.94
2018-08-24T11:30:06.411Z,1010.08
2018-08-24T11:31:06.311Z,1010.00
2018-08-24T11:32:06.276Z,1010.05
2018-08-24T11:33:06.189Z,1010.01
2018-08-24T11:34:06.181Z,1010.19
2018-08-24T11:35:06.097Z,1010.23
2018-08-24T11:36:06.099Z,1009.22
2018-08-24T11:37:05.973Z,1009.17
2018-08-24T11:38:05.910Z,1009.18
2018-08-24T11:39:05.788Z,1010.18
2018-08-24T11:40:05.713Z,1010.18
2018-08-24T11:41:05.683Z,1009.09
2018-08-24T11:42:06.605Z,1009.21
2018-08-24T11:43:05.500Z,1009.56
2018-08-24T11:45:47.553Z,1009.28
2018-08-24T11:46:47.466Z,1010.25
2018-08-24T11:47:47.538Z,1009.70
2018-08-24T11:48:47.311Z,1010.08
2018-08-24T11:49:47.237Z,1009.88
2018-08-24T11:52:29.548Z,1010.02
2018-08-24T11:53:29.464Z,1009.21
2018-08-24T11:54:29.508Z,1009.16
2018-08-24T11:55:29.320Z,1009.24
2018-08-24T11:56:29.236Z,1009.23
2018-08-24T11:57:29.206Z,1009.13
2018-08-24T11:58:29.095Z,1009.22
2018-08-24T12:01:11.036Z,1009.32
2018-08-24T12:02:11.034Z,1009.20
2018-08-24T12:03:10.884Z,1009.29
2018-08-24T12:04:10.810Z,1009.30
2018-08-24T12:05:10.731Z,1009.21
2018-08-24T12:07:53.062Z,1009.15
2018-08-24T12:08:53.973Z,1009.23
2018-08-24T12:09:52.881Z,1009.13
2018-08-24T12:10:52.814Z,1009.10
2018-08-24T12:11:52.743Z,1009.21
2018-08-24T12:14:35.103Z,1009.23
2018-08-24T12:17:17.030Z,1009.20
2018-08-24T12:18:16.997Z,1009.20
2018-08-24T12:19:16.915Z,1009.24
2018-08-24T12:21:59.177Z,1009.20
2018-08-24T12:22:58.983Z,1009.21
2018-08-24T12:23:58.907Z,1009.17
2018-08-24T12:24:58.811Z,1009.15
2018-08-24T12:25:58.731Z,1009.13
2018-08-24T12:28:41.038Z,1009.21
2018-08-24T12:29:40.999Z,1009.19
2018-08-24T12:30:40.946Z,1009.20
2018-08-24T12:31:40.810Z,1009.16
2018-08-24T12:32:40.749Z,1009.13
2018-08-24T12:33:40.680Z,1009.18
2018-08-24T12:34:40.614Z,1009.14
2018-08-24T12:35:40.533Z,1009.07
2018-08-24T12:36:40.447Z,1009.15
2018-08-24T12:37:40.360Z,1009.10
2018-08-24T12:38:40.303Z,1009.10
2018-08-24T12:39:40.233Z,1008.99
2018-08-24T12:40:40.151Z,1009.15
2018-08-24T12:41:40.072Z,1009.19
2018-08-24T12:42:39.988Z,1009.15
2018-08-24T12:43:39.961Z,1009.12
2018-08-24T12:44:39.887Z,1009.16
2018-08-24T12:45:39.766Z,1009.13
2018-08-24T12:46:39.774Z,1009.03
2018-08-24T12:49:21.585Z,1009.05
2018-08-24T12:50:21.488Z,1009.11
2018-08-24T12:51:21.434Z,1009.10
2018-08-24T12:52:21.314Z,1009.03
2018-08-24T12:53:21.257Z,1009.04
2018-08-24T12:56:03.637Z,1009.10
2018-08-24T12:58:45.535Z,1009.04
2018-08-24T12:59:45.623Z,1009.06
2018-08-24T13:00:45.429Z,1009.14
2018-08-24T13:03:27.552Z,1009.10
2018-08-24T13:04:27.482Z,1009.08
2018-08-24T13:05:27.404Z,1009.04
2018-08-24T13:06:27.380Z,1009.18
2018-08-24T13:07:27.270Z,1009.07
2018-08-24T13:08:27.232Z,1009.12
2018-08-24T13:09:27.092Z,1009.09
2018-08-24T13:10:27.022Z,1009.11
2018-08-24T13:11:26.943Z,1009.04
2018-08-24T13:12:26.900Z,1009.07
2018-08-24T13:13:26.788Z,1009.09
2018-08-24T13:14:26.719Z,1009.06
2018-08-24T13:15:26.643Z,1008.94
2018-08-24T13:16:26.620Z,1008.98
2018-08-24T13:17:26.505Z,1008.94
2018-08-24T13:20:08.553Z,1009.05
2018-08-24T13:21:08.503Z,1009.00
2018-08-24T13:22:08.422Z,1008.92
2018-08-24T13:23:08.416Z,1008.92
2018-08-24T13:24:08.247Z,1008.90
2018-08-24T13:25:08.241Z,1009.00
2018-08-24T13:26:08.112Z,1008.88
2018-08-24T13:27:08.074Z,1008.82
2018-08-24T13:28:08.046Z,1008.82
2018-08-24T13:29:07.954Z,1008.92
2018-08-24T13:30:07.842Z,1008.95
2018-08-24T13:31:07.778Z,1008.93
2018-08-24T13:32:12.707Z,1008.99
2018-08-24T13:33:07.567Z,1008.92
2018-08-24T13:34:07.555Z,1008.98
2018-08-24T13:35:07.404Z,1008.91
2018-08-24T13:36:07.373Z,1008.94
2018-08-24T13:37:07.272Z,1008.93
2018-08-24T13:38:07.222Z,1008.85
2018-08-24T13:39:07.125Z,1008.91
2018-08-24T13:40:07.089Z,1008.95